sensor_id;sensor_type;location;lat;lon;timestamp;P1;durP1;ratioP1;P2;durP2;ratioP2
52126;SDS011;38120;53.176;6.614;2023-08-24T00:02:09;5.55;;;3.28;;
52126;SDS011;38120;53.176;6.614;2023-08-24T00:04:36;8.35;;;3.83;;
52126;SDS011;38120;53.176;6.614;2023-08-24T00:07:02;7.63;;;3.60;;
52126;SDS011;38120;53.176;6.614;2023-08-24T00:09:28;5.13;;;3.13;;
52126;SDS011;38120;53.176;6.614;2023-08-24T00:11:54;6.40;;;2.85;;
52126;SDS011;38120;53.176;6.614;2023-08-24T00:14:20;5.85;;;3.60;;
52126;SDS011;38120;53.176;6.614;2023-08-24T00:16:46;5.28;;;3.28;;
52126;SDS011;38120;53.176;6.614;2023-08-24T00:19:12;5.28;;;2.58;;
52126;SDS011;38120;53.176;6.614;2023-08-24T00:21:37;9.13;;;2.70;;
52126;SDS011;38120;53.176;6.614;2023-08-24T00:24:03;5.60;;;3.00;;
52126;SDS011;38120;53.176;6.614;2023-08-24T00:26:29;7.05;;;2.60;;
52126;SDS011;38120;53.176;6.614;2023-08-24T00:28:55;8.88;;;3.65;;
52126;SDS011;38120;53.176;6.614;2023-08-24T00:31:21;6.47;;;3.08;;
52126;SDS011;38120;53.176;6.614;2023-08-24T00:33:46;4.72;;;2.60;;
52126;SDS011;38120;53.176;6.614;2023-08-24T00:36:12;5.38;;;3.00;;
52126;SDS011;38120;53.176;6.614;2023-08-24T00:38:38;4.53;;;2.65;;
52126;SDS011;38120;53.176;6.614;2023-08-24T00:41:04;6.25;;;3.53;;
52126;SDS011;38120;53.176;6.614;2023-08-24T00:43:30;5.13;;;2.70;;
52126;SDS011;38120;53.176;6.614;2023-08-24T00:45:57;7.72;;;2.50;;
52126;SDS011;38120;53.176;6.614;2023-08-24T00:48:25;6.88;;;2.75;;
52126;SDS011;38120;53.176;6.614;2023-08-24T00:50:54;7.13;;;3.22;;
52126;SDS011;38120;53.176;6.614;2023-08-24T00:53:20;5.05;;;2.80;;
52126;SDS011;38120;53.176;6.614;2023-08-24T00:55:49;4.80;;;2.45;;
52126;SDS011;38120;53.176;6.614;2023-08-24T00:58:15;6.93;;;3.38;;
52126;SDS011;38120;53.176;6.614;2023-08-24T01:00:42;5.72;;;2.90;;
52126;SDS011;38120;53.176;6.614;2023-08-24T01:03:08;7.00;;;3.40;;
52126;SDS011;38120;53.176;6.614;2023-08-24T01:05:34;5.68;;;3.30;;
52126;SDS011;38120;53.176;6.614;2023-08-24T01:08:00;5.88;;;2.95;;
52126;SDS011;38120;53.176;6.614;2023-08-24T01:10:27;6.47;;;3.08;;
52126;SDS011;38120;53.176;6.614;2023-08-24T01:13:05;7.70;;;3.60;;
52126;SDS011;38120;53.176;6.614;2023-08-24T01:18:14;8.10;;;3.22;;
52126;SDS011;38120;53.176;6.614;2023-08-24T01:20:44;5.70;;;2.72;;
52126;SDS011;38120;53.176;6.614;2023-08-24T01:23:35;6.95;;;2.83;;
52126;SDS011;38120;53.176;6.614;2023-08-24T01:26:08;7.18;;;3.55;;
52126;SDS011;38120;53.176;6.614;2023-08-24T01:28:37;6.45;;;2.90;;
52126;SDS011;38120;53.176;6.614;2023-08-24T01:31:04;5.88;;;2.90;;
52126;SDS011;38120;53.176;6.614;2023-08-24T01:33:30;8.70;;;3.47;;
52126;SDS011;38120;53.176;6.614;2023-08-24T01:35:56;5.53;;;3.50;;
52126;SDS011;38120;53.176;6.614;2023-08-24T01:38:22;7.38;;;3.22;;
52126;SDS011;38120;53.176;6.614;2023-08-24T01:43:35;6.23;;;2.83;;
52126;SDS011;38120;53.176;6.614;2023-08-24T01:46:05;6.30;;;3.35;;
52126;SDS011;38120;53.176;6.614;2023-08-24T01:48:32;7.03;;;4.43;;
52126;SDS011;38120;53.176;6.614;2023-08-24T01:50:58;11.23;;;4.63;;
52126;SDS011;38120;53.176;6.614;2023-08-24T01:53:26;6.75;;;4.13;;
52126;SDS011;38120;53.176;6.614;2023-08-24T01:55:53;9.38;;;4.70;;
52126;SDS011;38120;53.176;6.614;2023-08-24T01:58:19;6.45;;;3.90;;
52126;SDS011;38120;53.176;6.614;2023-08-24T02:00:45;6.05;;;3.80;;
52126;SDS011;38120;53.176;6.614;2023-08-24T02:03:11;8.07;;;4.70;;
52126;SDS011;38120;53.176;6.614;2023-08-24T02:05:36;8.05;;;4.13;;
52126;SDS011;38120;53.176;6.614;2023-08-24T02:08:02;10.73;;;4.97;;
52126;SDS011;38120;53.176;6.614;2023-08-24T02:10:28;9.88;;;4.47;;
52126;SDS011;38120;53.176;6.614;2023-08-24T02:12:54;8.93;;;5.05;;
52126;SDS011;38120;53.176;6.614;2023-08-24T02:15:20;7.30;;;4.68;;
52126;SDS011;38120;53.176;6.614;2023-08-24T02:17:45;6.28;;;4.10;;
52126;SDS011;38120;53.176;6.614;2023-08-24T02:20:11;8.32;;;4.30;;
52126;SDS011;38120;53.176;6.614;2023-08-24T02:22:37;8.15;;;4.55;;
52126;SDS011;38120;53.176;6.614;2023-08-24T02:27:34;7.15;;;4.20;;
52126;SDS011;38120;53.176;6.614;2023-08-24T02:30:00;10.20;;;4.88;;
52126;SDS011;38120;53.176;6.614;2023-08-24T02:32:31;8.38;;;4.50;;
52126;SDS011;38120;53.176;6.614;2023-08-24T02:34:57;7.63;;;4.88;;
52126;SDS011;38120;53.176;6.614;2023-08-24T02:37:23;8.60;;;4.57;;
52126;SDS011;38120;53.176;6.614;2023-08-24T02:39:49;7.95;;;4.47;;
52126;SDS011;38120;53.176;6.614;2023-08-24T02:42:14;7.63;;;4.13;;
52126;SDS011;38120;53.176;6.614;2023-08-24T02:44:40;15.48;;;5.30;;
52126;SDS011;38120;53.176;6.614;2023-08-24T02:47:06;8.38;;;4.75;;
52126;SDS011;38120;53.176;6.614;2023-08-24T02:49:32;8.82;;;5.00;;
52126;SDS011;38120;53.176;6.614;2023-08-24T02:51:57;11.55;;;4.70;;
52126;SDS011;38120;53.176;6.614;2023-08-24T02:54:23;7.57;;;4.88;;
52126;SDS011;38120;53.176;6.614;2023-08-24T02:56:48;8.90;;;4.65;;
52126;SDS011;38120;53.176;6.614;2023-08-24T02:59:14;7.43;;;4.38;;
52126;SDS011;38120;53.176;6.614;2023-08-24T03:01:40;7.87;;;4.30;;
52126;SDS011;38120;53.176;6.614;2023-08-24T03:04:06;8.05;;;4.65;;
52126;SDS011;38120;53.176;6.614;2023-08-24T03:06:32;8.05;;;5.15;;
52126;SDS011;38120;53.176;6.614;2023-08-24T03:08:59;9.65;;;5.38;;
52126;SDS011;38120;53.176;6.614;2023-08-24T03:11:26;10.68;;;5.95;;
52126;SDS011;38120;53.176;6.614;2023-08-24T03:13:51;7.60;;;4.88;;
52126;SDS011;38120;53.176;6.614;2023-08-24T03:16:17;12.23;;;6.40;;
52126;SDS011;38120;53.176;6.614;2023-08-24T03:18:42;12.93;;;6.72;;
52126;SDS011;38120;53.176;6.614;2023-08-24T03:21:08;10.55;;;6.13;;
52126;SDS011;38120;53.176;6.614;2023-08-24T03:23:35;10.43;;;6.72;;
52126;SDS011;38120;53.176;6.614;2023-08-24T03:26:00;11.02;;;6.72;;
52126;SDS011;38120;53.176;6.614;2023-08-24T03:28:26;12.13;;;5.75;;
52126;SDS011;38120;53.176;6.614;2023-08-24T03:30:52;11.93;;;6.90;;
52126;SDS011;38120;53.176;6.614;2023-08-24T03:33:19;11.35;;;6.18;;
52126;SDS011;38120;53.176;6.614;2023-08-24T03:35:45;8.50;;;5.85;;
52126;SDS011;38120;53.176;6.614;2023-08-24T03:38:10;11.52;;;6.75;;
52126;SDS011;38120;53.176;6.614;2023-08-24T03:40:36;10.20;;;6.05;;
52126;SDS011;38120;53.176;6.614;2023-08-24T03:43:02;12.77;;;6.45;;
52126;SDS011;38120;53.176;6.614;2023-08-24T03:45:28;10.68;;;6.28;;
52126;SDS011;38120;53.176;6.614;2023-08-24T03:47:54;9.75;;;6.28;;
52126;SDS011;38120;53.176;6.614;2023-08-24T03:50:20;8.77;;;5.25;;
52126;SDS011;38120;53.176;6.614;2023-08-24T03:52:47;10.88;;;5.50;;
52126;SDS011;38120;53.176;6.614;2023-08-24T03:55:15;10.82;;;5.38;;
52126;SDS011;38120;53.176;6.614;2023-08-24T04:00:07;9.60;;;5.57;;
52126;SDS011;38120;53.176;6.614;2023-08-24T04:02:37;8.02;;;5.20;;
52126;SDS011;38120;53.176;6.614;2023-08-24T04:05:03;10.48;;;6.75;;
52126;SDS011;38120;53.176;6.614;2023-08-24T04:07:29;8.85;;;4.72;;
52126;SDS011;38120;53.176;6.614;2023-08-24T04:09:57;12.15;;;5.75;;
52126;SDS011;38120;53.176;6.614;2023-08-24T04:12:22;8.43;;;5.35;;
52126;SDS011;38120;53.176;6.614;2023-08-24T04:14:48;9.38;;;4.93;;
52126;SDS011;38120;53.176;6.614;2023-08-24T04:17:14;8.80;;;5.30;;
52126;SDS011;38120;53.176;6.614;2023-08-24T04:19:40;12.75;;;6.07;;
52126;SDS011;38120;53.176;6.614;2023-08-24T04:22:05;13.65;;;5.32;;
52126;SDS011;38120;53.176;6.614;2023-08-24T04:24:31;8.93;;;5.32;;
52126;SDS011;38120;53.176;6.614;2023-08-24T04:26:56;10.77;;;5.50;;
52126;SDS011;38120;53.176;6.614;2023-08-24T04:29:22;9.15;;;4.85;;
52126;SDS011;38120;53.176;6.614;2023-08-24T04:31:48;9.25;;;5.57;;
52126;SDS011;38120;53.176;6.614;2023-08-24T04:34:13;12.18;;;5.00;;
52126;SDS011;38120;53.176;6.614;2023-08-24T04:36:39;8.10;;;5.15;;
52126;SDS011;38120;53.176;6.614;2023-08-24T04:39:05;11.90;;;5.47;;
52126;SDS011;38120;53.176;6.614;2023-08-24T04:41:30;14.38;;;6.13;;
52126;SDS011;38120;53.176;6.614;2023-08-24T04:43:56;9.77;;;5.30;;
52126;SDS011;38120;53.176;6.614;2023-08-24T04:46:22;8.07;;;4.68;;
52126;SDS011;38120;53.176;6.614;2023-08-24T04:48:56;8.73;;;5.13;;
52126;SDS011;38120;53.176;6.614;2023-08-24T04:51:22;8.38;;;5.32;;
52126;SDS011;38120;53.176;6.614;2023-08-24T04:53:47;12.30;;;5.30;;
52126;SDS011;38120;53.176;6.614;2023-08-24T04:56:13;8.50;;;5.27;;
52126;SDS011;38120;53.176;6.614;2023-08-24T04:58:39;6.88;;;5.13;;
52126;SDS011;38120;53.176;6.614;2023-08-24T05:01:05;6.43;;;3.30;;
52126;SDS011;38120;53.176;6.614;2023-08-24T05:03:31;9.60;;;3.90;;
52126;SDS011;38120;53.176;6.614;2023-08-24T05:05:56;6.68;;;4.22;;
52126;SDS011;38120;53.176;6.614;2023-08-24T05:08:22;6.72;;;4.15;;
52126;SDS011;38120;53.176;6.614;2023-08-24T05:10:48;8.85;;;5.32;;
52126;SDS011;38120;53.176;6.614;2023-08-24T05:13:13;11.45;;;5.72;;
52126;SDS011;38120;53.176;6.614;2023-08-24T05:15:39;10.18;;;5.38;;
52126;SDS011;38120;53.176;6.614;2023-08-24T05:18:05;9.27;;;5.50;;
52126;SDS011;38120;53.176;6.614;2023-08-24T05:20:32;8.75;;;5.43;;
52126;SDS011;38120;53.176;6.614;2023-08-24T05:22:57;10.15;;;6.32;;
52126;SDS011;38120;53.176;6.614;2023-08-24T05:25:24;8.98;;;5.63;;
52126;SDS011;38120;53.176;6.614;2023-08-24T05:27:50;9.93;;;5.93;;
52126;SDS011;38120;53.176;6.614;2023-08-24T05:32:42;11.75;;;6.85;;
52126;SDS011;38120;53.176;6.614;2023-08-24T05:35:08;13.00;;;7.28;;
52126;SDS011;38120;53.176;6.614;2023-08-24T05:37:34;14.00;;;7.45;;
52126;SDS011;38120;53.176;6.614;2023-08-24T05:40:00;14.65;;;8.55;;
52126;SDS011;38120;53.176;6.614;2023-08-24T05:42:27;10.73;;;6.68;;
52126;SDS011;38120;53.176;6.614;2023-08-24T05:44:53;15.57;;;8.38;;
52126;SDS011;38120;53.176;6.614;2023-08-24T05:47:19;16.92;;;8.07;;
52126;SDS011;38120;53.176;6.614;2023-08-24T05:49:44;14.20;;;7.38;;
52126;SDS011;38120;53.176;6.614;2023-08-24T05:52:10;16.05;;;9.50;;
52126;SDS011;38120;53.176;6.614;2023-08-24T05:54:36;17.48;;;8.77;;
52126;SDS011;38120;53.176;6.614;2023-08-24T05:57:02;15.38;;;9.20;;
52126;SDS011;38120;53.176;6.614;2023-08-24T06:01:54;14.02;;;8.95;;
52126;SDS011;38120;53.176;6.614;2023-08-24T06:04:20;18.08;;;10.27;;
52126;SDS011;38120;53.176;6.614;2023-08-24T06:06:46;15.43;;;8.95;;
52126;SDS011;38120;53.176;6.614;2023-08-24T06:09:12;14.85;;;9.48;;
52126;SDS011;38120;53.176;6.614;2023-08-24T06:11:38;17.42;;;10.55;;
52126;SDS011;38120;53.176;6.614;2023-08-24T06:14:05;16.38;;;8.88;;
52126;SDS011;38120;53.176;6.614;2023-08-24T06:16:31;15.38;;;8.88;;
52126;SDS011;38120;53.176;6.614;2023-08-24T06:18:57;14.07;;;8.57;;
52126;SDS011;38120;53.176;6.614;2023-08-24T06:21:23;14.25;;;10.73;;
52126;SDS011;38120;53.176;6.614;2023-08-24T06:23:48;14.25;;;8.32;;
52126;SDS011;38120;53.176;6.614;2023-08-24T06:26:14;12.20;;;8.98;;
52126;SDS011;38120;53.176;6.614;2023-08-24T06:28:40;15.23;;;8.65;;
52126;SDS011;38120;53.176;6.614;2023-08-24T06:31:05;18.70;;;8.73;;
52126;SDS011;38120;53.176;6.614;2023-08-24T06:33:34;16.10;;;9.57;;
52126;SDS011;38120;53.176;6.614;2023-08-24T06:36:01;17.45;;;8.45;;
52126;SDS011;38120;53.176;6.614;2023-08-24T06:38:30;19.08;;;8.32;;
52126;SDS011;38120;53.176;6.614;2023-08-24T06:40:57;14.23;;;7.28;;
52126;SDS011;38120;53.176;6.614;2023-08-24T06:43:23;10.95;;;6.65;;
52126;SDS011;38120;53.176;6.614;2023-08-24T06:45:48;12.18;;;6.28;;
52126;SDS011;38120;53.176;6.614;2023-08-24T06:48:14;11.55;;;6.72;;
52126;SDS011;38120;53.176;6.614;2023-08-24T06:50:40;10.43;;;5.82;;
52126;SDS011;38120;53.176;6.614;2023-08-24T06:53:06;9.07;;;5.90;;
52126;SDS011;38120;53.176;6.614;2023-08-24T06:55:31;12.98;;;6.05;;
52126;SDS011;38120;53.176;6.614;2023-08-24T06:57:57;9.77;;;5.25;;
52126;SDS011;38120;53.176;6.614;2023-08-24T07:00:23;9.90;;;6.03;;
52126;SDS011;38120;53.176;6.614;2023-08-24T07:02:50;9.35;;;4.75;;
52126;SDS011;38120;53.176;6.614;2023-08-24T07:05:16;11.95;;;5.65;;
52126;SDS011;38120;53.176;6.614;2023-08-24T07:07:45;13.02;;;5.65;;
52126;SDS011;38120;53.176;6.614;2023-08-24T07:10:12;13.30;;;4.90;;
52126;SDS011;38120;53.176;6.614;2023-08-24T07:12:38;8.57;;;4.13;;
52126;SDS011;38120;53.176;6.614;2023-08-24T07:15:07;10.88;;;5.72;;
52126;SDS011;38120;53.176;6.614;2023-08-24T07:17:33;11.25;;;5.30;;
52126;SDS011;38120;53.176;6.614;2023-08-24T07:19:59;12.43;;;4.18;;
52126;SDS011;38120;53.176;6.614;2023-08-24T07:22:25;7.68;;;4.07;;
52126;SDS011;38120;53.176;6.614;2023-08-24T07:24:51;8.00;;;3.85;;
52126;SDS011;38120;53.176;6.614;2023-08-24T07:27:18;8.50;;;4.13;;
52126;SDS011;38120;53.176;6.614;2023-08-24T07:29:43;8.10;;;4.45;;
52126;SDS011;38120;53.176;6.614;2023-08-24T07:32:09;7.32;;;4.22;;
52126;SDS011;38120;53.176;6.614;2023-08-24T07:34:35;8.35;;;4.70;;
52126;SDS011;38120;53.176;6.614;2023-08-24T07:37:01;13.63;;;6.05;;
52126;SDS011;38120;53.176;6.614;2023-08-24T07:39:26;9.10;;;5.43;;
52126;SDS011;38120;53.176;6.614;2023-08-24T07:41:52;11.55;;;6.53;;
52126;SDS011;38120;53.176;6.614;2023-08-24T07:44:18;12.10;;;4.90;;
52126;SDS011;38120;53.176;6.614;2023-08-24T07:46:44;13.18;;;5.45;;
52126;SDS011;38120;53.176;6.614;2023-08-24T07:49:09;14.80;;;6.95;;
52126;SDS011;38120;53.176;6.614;2023-08-24T07:51:35;10.60;;;5.32;;
52126;SDS011;38120;53.176;6.614;2023-08-24T07:54:01;11.93;;;6.22;;
52126;SDS011;38120;53.176;6.614;2023-08-24T07:56:26;9.18;;;5.50;;
52126;SDS011;38120;53.176;6.614;2023-08-24T07:58:52;11.98;;;6.30;;
52126;SDS011;38120;53.176;6.614;2023-08-24T08:01:18;11.98;;;5.88;;
52126;SDS011;38120;53.176;6.614;2023-08-24T08:03:43;11.23;;;6.13;;
52126;SDS011;38120;53.176;6.614;2023-08-24T08:06:09;14.52;;;6.72;;
52126;SDS011;38120;53.176;6.614;2023-08-24T08:08:35;10.73;;;5.78;;
52126;SDS011;38120;53.176;6.614;2023-08-24T08:11:01;11.50;;;5.63;;
52126;SDS011;38120;53.176;6.614;2023-08-24T08:13:28;10.32;;;5.97;;
52126;SDS011;38120;53.176;6.614;2023-08-24T08:16:00;11.23;;;6.63;;
52126;SDS011;38120;53.176;6.614;2023-08-24T08:18:29;14.65;;;5.47;;
52126;SDS011;38120;53.176;6.614;2023-08-24T08:20:55;8.07;;;4.85;;
52126;SDS011;38120;53.176;6.614;2023-08-24T08:23:20;14.05;;;6.00;;
52126;SDS011;38120;53.176;6.614;2023-08-24T08:25:46;10.98;;;4.97;;
52126;SDS011;38120;53.176;6.614;2023-08-24T08:28:12;12.13;;;5.32;;
52126;SDS011;38120;53.176;6.614;2023-08-24T08:30:38;13.98;;;5.22;;
52126;SDS011;38120;53.176;6.614;2023-08-24T08:35:29;14.13;;;5.40;;
52126;SDS011;38120;53.176;6.614;2023-08-24T08:37:55;9.57;;;5.28;;
52126;SDS011;38120;53.176;6.614;2023-08-24T08:40:21;9.10;;;5.45;;
52126;SDS011;38120;53.176;6.614;2023-08-24T08:42:55;6.38;;;4.28;;
52126;SDS011;38120;53.176;6.614;2023-08-24T08:45:22;10.75;;;5.30;;
52126;SDS011;38120;53.176;6.614;2023-08-24T08:47:51;11.50;;;4.95;;
52126;SDS011;38120;53.176;6.614;2023-08-24T08:50:17;8.93;;;4.18;;
52126;SDS011;38120;53.176;6.614;2023-08-24T08:52:44;7.78;;;4.40;;
52126;SDS011;38120;53.176;6.614;2023-08-24T08:55:10;8.05;;;4.38;;
52126;SDS011;38120;53.176;6.614;2023-08-24T08:57:37;8.75;;;5.18;;
52126;SDS011;38120;53.176;6.614;2023-08-24T09:00:05;14.40;;;6.32;;
52126;SDS011;38120;53.176;6.614;2023-08-24T09:02:32;10.55;;;5.63;;
52126;SDS011;38120;53.176;6.614;2023-08-24T09:04:58;14.38;;;6.00;;
52126;SDS011;38120;53.176;6.614;2023-08-24T09:07:24;10.68;;;5.13;;
52126;SDS011;38120;53.176;6.614;2023-08-24T09:09:50;12.75;;;5.32;;
52126;SDS011;38120;53.176;6.614;2023-08-24T09:12:16;7.70;;;4.90;;
52126;SDS011;38120;53.176;6.614;2023-08-24T09:14:41;8.93;;;5.85;;
52126;SDS011;38120;53.176;6.614;2023-08-24T09:17:07;8.98;;;5.88;;
52126;SDS011;38120;53.176;6.614;2023-08-24T09:19:33;9.93;;;5.20;;
52126;SDS011;38120;53.176;6.614;2023-08-24T09:22:04;16.00;;;5.45;;
52126;SDS011;38120;53.176;6.614;2023-08-24T09:24:30;14.43;;;5.75;;
52126;SDS011;38120;53.176;6.614;2023-08-24T09:26:57;10.68;;;4.82;;
52126;SDS011;38120;53.176;6.614;2023-08-24T09:29:23;12.18;;;6.18;;
52126;SDS011;38120;53.176;6.614;2023-08-24T09:31:50;12.68;;;5.78;;
52126;SDS011;38120;53.176;6.614;2023-08-24T09:34:19;12.80;;;5.80;;
52126;SDS011;38120;53.176;6.614;2023-08-24T09:36:45;13.02;;;5.35;;
52126;SDS011;38120;53.176;6.614;2023-08-24T09:39:11;10.20;;;6.25;;
52126;SDS011;38120;53.176;6.614;2023-08-24T09:41:44;11.00;;;5.22;;
52126;SDS011;38120;53.176;6.614;2023-08-24T09:44:12;10.05;;;5.60;;
52126;SDS011;38120;53.176;6.614;2023-08-24T09:46:42;8.48;;;5.03;;
52126;SDS011;38120;53.176;6.614;2023-08-24T09:49:09;11.25;;;5.07;;
52126;SDS011;38120;53.176;6.614;2023-08-24T09:51:36;12.88;;;6.03;;
52126;SDS011;38120;53.176;6.614;2023-08-24T09:54:04;11.15;;;4.97;;
52126;SDS011;38120;53.176;6.614;2023-08-24T09:56:34;12.52;;;5.60;;
52126;SDS011;38120;53.176;6.614;2023-08-24T09:59:10;10.52;;;6.05;;
52126;SDS011;38120;53.176;6.614;2023-08-24T10:01:42;8.95;;;5.38;;
52126;SDS011;38120;53.176;6.614;2023-08-24T10:04:09;9.48;;;5.35;;
52126;SDS011;38120;53.176;6.614;2023-08-24T10:06:38;15.52;;;6.55;;
52126;SDS011;38120;53.176;6.614;2023-08-24T10:09:06;7.80;;;5.22;;
52126;SDS011;38120;53.176;6.614;2023-08-24T10:11:34;9.38;;;5.25;;
52126;SDS011;38120;53.176;6.614;2023-08-24T10:14:19;9.75;;;5.90;;
52126;SDS011;38120;53.176;6.614;2023-08-24T10:16:52;11.55;;;6.22;;
52126;SDS011;38120;53.176;6.614;2023-08-24T10:19:18;9.07;;;6.00;;
52126;SDS011;38120;53.176;6.614;2023-08-24T10:21:46;12.85;;;6.03;;
52126;SDS011;38120;53.176;6.614;2023-08-24T10:24:12;13.77;;;6.95;;
52126;SDS011;38120;53.176;6.614;2023-08-24T10:26:39;8.30;;;5.13;;
52126;SDS011;38120;53.176;6.614;2023-08-24T10:29:06;11.15;;;6.65;;
52126;SDS011;38120;53.176;6.614;2023-08-24T10:33:58;12.43;;;6.07;;
52126;SDS011;38120;53.176;6.614;2023-08-24T10:36:25;19.42;;;7.90;;
52126;SDS011;38120;53.176;6.614;2023-08-24T10:38:53;12.02;;;6.60;;
52126;SDS011;38120;53.176;6.614;2023-08-24T10:41:25;15.88;;;8.18;;
52126;SDS011;38120;53.176;6.614;2023-08-24T10:43:52;12.35;;;5.57;;
52126;SDS011;38120;53.176;6.614;2023-08-24T10:48:59;13.27;;;6.93;;
52126;SDS011;38120;53.176;6.614;2023-08-24T10:51:25;12.30;;;5.82;;
52126;SDS011;38120;53.176;6.614;2023-08-24T10:56:29;11.18;;;5.93;;
52126;SDS011;38120;53.176;6.614;2023-08-24T10:59:12;13.95;;;6.00;;
52126;SDS011;38120;53.176;6.614;2023-08-24T11:01:43;11.00;;;6.43;;
52126;SDS011;38120;53.176;6.614;2023-08-24T11:04:19;11.77;;;6.50;;
52126;SDS011;38120;53.176;6.614;2023-08-24T11:06:55;14.90;;;7.32;;
52126;SDS011;38120;53.176;6.614;2023-08-24T11:09:23;9.70;;;6.63;;
52126;SDS011;38120;53.176;6.614;2023-08-24T11:12:23;13.20;;;6.47;;
52126;SDS011;38120;53.176;6.614;2023-08-24T11:14:49;11.30;;;7.35;;
52126;SDS011;38120;53.176;6.614;2023-08-24T11:17:24;10.20;;;6.63;;
52126;SDS011;38120;53.176;6.614;2023-08-24T11:19:54;16.98;;;8.02;;
52126;SDS011;38120;53.176;6.614;2023-08-24T11:22:20;9.93;;;6.75;;
52126;SDS011;38120;53.176;6.614;2023-08-24T11:27:12;9.30;;;6.72;;
52126;SDS011;38120;53.176;6.614;2023-08-24T11:29:38;14.25;;;7.13;;
52126;SDS011;38120;53.176;6.614;2023-08-24T11:32:04;11.88;;;7.65;;
52126;SDS011;38120;53.176;6.614;2023-08-24T11:34:31;13.48;;;9.25;;
52126;SDS011;38120;53.176;6.614;2023-08-24T11:36:59;12.38;;;7.75;;
52126;SDS011;38120;53.176;6.614;2023-08-24T11:39:25;18.00;;;7.70;;
52126;SDS011;38120;53.176;6.614;2023-08-24T11:42:00;13.55;;;7.75;;
52126;SDS011;38120;53.176;6.614;2023-08-24T11:44:44;14.80;;;8.27;;
52126;SDS011;38120;53.176;6.614;2023-08-24T11:47:14;14.75;;;7.72;;
52126;SDS011;38120;53.176;6.614;2023-08-24T11:49:40;14.38;;;8.52;;
52126;SDS011;38120;53.176;6.614;2023-08-24T11:54:32;11.80;;;7.35;;
52126;SDS011;38120;53.176;6.614;2023-08-24T11:59:23;12.50;;;7.25;;
52126;SDS011;38120;53.176;6.614;2023-08-24T12:01:50;13.40;;;7.70;;
52126;SDS011;38120;53.176;6.614;2023-08-24T12:04:17;10.52;;;6.85;;
52126;SDS011;38120;53.176;6.614;2023-08-24T12:06:43;11.68;;;6.57;;
52126;SDS011;38120;53.176;6.614;2023-08-24T12:09:09;10.73;;;7.40;;
52126;SDS011;38120;53.176;6.614;2023-08-24T12:11:35;11.38;;;7.13;;
52126;SDS011;38120;53.176;6.614;2023-08-24T12:14:02;11.15;;;7.63;;
52126;SDS011;38120;53.176;6.614;2023-08-24T12:16:30;13.23;;;8.23;;
52126;SDS011;38120;53.176;6.614;2023-08-24T12:18:58;16.08;;;8.30;;
52126;SDS011;38120;53.176;6.614;2023-08-24T12:21:25;13.13;;;7.85;;
52126;SDS011;38120;53.176;6.614;2023-08-24T12:24:13;12.48;;;7.15;;
52126;SDS011;38120;53.176;6.614;2023-08-24T12:26:39;11.48;;;7.32;;
52126;SDS011;38120;53.176;6.614;2023-08-24T12:29:05;9.55;;;6.68;;
52126;SDS011;38120;53.176;6.614;2023-08-24T12:31:33;13.23;;;7.70;;
52126;SDS011;38120;53.176;6.614;2023-08-24T12:36:29;15.45;;;7.78;;
52126;SDS011;38120;53.176;6.614;2023-08-24T12:38:56;12.13;;;7.97;;
52126;SDS011;38120;53.176;6.614;2023-08-24T12:41:23;11.75;;;7.85;;
52126;SDS011;38120;53.176;6.614;2023-08-24T12:43:49;11.55;;;7.65;;
52126;SDS011;38120;53.176;6.614;2023-08-24T12:46:16;11.98;;;8.35;;
52126;SDS011;38120;53.176;6.614;2023-08-24T12:48:42;11.85;;;7.88;;
52126;SDS011;38120;53.176;6.614;2023-08-24T12:51:08;15.57;;;8.40;;
52126;SDS011;38120;53.176;6.614;2023-08-24T12:53:33;15.00;;;8.52;;
52126;SDS011;38120;53.176;6.614;2023-08-24T12:55:59;13.45;;;9.25;;
52126;SDS011;38120;53.176;6.614;2023-08-24T12:58:25;12.48;;;8.32;;
52126;SDS011;38120;53.176;6.614;2023-08-24T13:00:50;11.95;;;8.30;;
52126;SDS011;38120;53.176;6.614;2023-08-24T13:03:16;15.07;;;9.00;;
52126;SDS011;38120;53.176;6.614;2023-08-24T13:05:42;15.30;;;9.32;;
52126;SDS011;38120;53.176;6.614;2023-08-24T13:08:07;17.30;;;8.38;;
52126;SDS011;38120;53.176;6.614;2023-08-24T13:10:33;13.50;;;8.23;;
52126;SDS011;38120;53.176;6.614;2023-08-24T13:12:59;16.13;;;9.40;;
52126;SDS011;38120;53.176;6.614;2023-08-24T13:15:25;16.20;;;8.70;;
52126;SDS011;38120;53.176;6.614;2023-08-24T13:20:17;12.38;;;7.95;;
52126;SDS011;38120;53.176;6.614;2023-08-24T13:22:42;12.60;;;7.57;;
52126;SDS011;38120;53.176;6.614;2023-08-24T13:25:08;13.30;;;7.72;;
52126;SDS011;38120;53.176;6.614;2023-08-24T13:27:34;12.75;;;8.77;;
52126;SDS011;38120;53.176;6.614;2023-08-24T13:30:00;13.20;;;8.40;;
52126;SDS011;38120;53.176;6.614;2023-08-24T13:32:26;12.55;;;8.80;;
52126;SDS011;38120;53.176;6.614;2023-08-24T13:34:52;14.32;;;8.52;;
52126;SDS011;38120;53.176;6.614;2023-08-24T13:37:18;10.73;;;7.13;;
52126;SDS011;38120;53.176;6.614;2023-08-24T13:39:44;9.43;;;7.32;;
52126;SDS011;38120;53.176;6.614;2023-08-24T13:42:09;13.35;;;8.75;;
52126;SDS011;38120;53.176;6.614;2023-08-24T13:44:35;12.60;;;8.98;;
52126;SDS011;38120;53.176;6.614;2023-08-24T13:49:27;10.15;;;7.43;;
52126;SDS011;38120;53.176;6.614;2023-08-24T13:51:52;13.65;;;8.30;;
52126;SDS011;38120;53.176;6.614;2023-08-24T13:54:20;12.30;;;8.55;;
52126;SDS011;38120;53.176;6.614;2023-08-24T13:56:47;10.90;;;8.48;;
52126;SDS011;38120;53.176;6.614;2023-08-24T13:59:14;11.85;;;8.20;;
52126;SDS011;38120;53.176;6.614;2023-08-24T14:01:40;11.95;;;8.52;;
52126;SDS011;38120;53.176;6.614;2023-08-24T14:04:06;15.82;;;8.05;;
52126;SDS011;38120;53.176;6.614;2023-08-24T14:06:33;13.00;;;9.02;;
52126;SDS011;38120;53.176;6.614;2023-08-24T14:09:01;11.43;;;7.93;;
52126;SDS011;38120;53.176;6.614;2023-08-24T14:11:31;12.55;;;8.10;;
52126;SDS011;38120;53.176;6.614;2023-08-24T14:13:57;13.13;;;9.02;;
52126;SDS011;38120;53.176;6.614;2023-08-24T14:16:24;11.93;;;7.60;;
52126;SDS011;38120;53.176;6.614;2023-08-24T14:18:51;13.65;;;8.07;;
52126;SDS011;38120;53.176;6.614;2023-08-24T14:21:18;15.90;;;8.50;;
52126;SDS011;38120;53.176;6.614;2023-08-24T14:23:45;11.55;;;9.20;;
52126;SDS011;38120;53.176;6.614;2023-08-24T14:26:11;15.82;;;9.30;;
52126;SDS011;38120;53.176;6.614;2023-08-24T14:31:33;14.27;;;8.70;;
52126;SDS011;38120;53.176;6.614;2023-08-24T14:33:59;10.85;;;8.30;;
52126;SDS011;38120;53.176;6.614;2023-08-24T14:36:25;12.13;;;8.63;;
52126;SDS011;38120;53.176;6.614;2023-08-24T14:38:51;14.75;;;9.63;;
52126;SDS011;38120;53.176;6.614;2023-08-24T14:41:19;16.58;;;9.00;;
52126;SDS011;38120;53.176;6.614;2023-08-24T14:43:45;18.25;;;8.23;;
52126;SDS011;38120;53.176;6.614;2023-08-24T14:46:12;13.80;;;7.68;;
52126;SDS011;38120;53.176;6.614;2023-08-24T14:48:38;11.65;;;7.60;;
52126;SDS011;38120;53.176;6.614;2023-08-24T14:51:04;11.57;;;7.35;;
52126;SDS011;38120;53.176;6.614;2023-08-24T14:53:30;15.75;;;9.07;;
52126;SDS011;38120;53.176;6.614;2023-08-24T14:55:56;13.93;;;8.82;;
52126;SDS011;38120;53.176;6.614;2023-08-24T14:58:23;16.52;;;8.52;;
52126;SDS011;38120;53.176;6.614;2023-08-24T15:00:50;10.23;;;7.03;;
52126;SDS011;38120;53.176;6.614;2023-08-24T15:03:17;9.27;;;7.25;;
52126;SDS011;38120;53.176;6.614;2023-08-24T15:05:44;9.48;;;6.32;;
52126;SDS011;38120;53.176;6.614;2023-08-24T15:08:29;14.68;;;6.57;;
52126;SDS011;38120;53.176;6.614;2023-08-24T15:10:56;12.80;;;6.82;;
52126;SDS011;38120;53.176;6.614;2023-08-24T15:13:23;10.55;;;7.45;;
52126;SDS011;38120;53.176;6.614;2023-08-24T15:15:50;11.18;;;8.18;;
52126;SDS011;38120;53.176;6.614;2023-08-24T15:18:17;14.20;;;9.02;;
52126;SDS011;38120;53.176;6.614;2023-08-24T15:20:43;12.32;;;8.70;;